首页
METAR-TAF:

METAR-TAF

机场 :

RAF

Holbeach, 英格兰

纬度: 52-52N, 经度: 000-09E, 海拔: 3米

当前天气观测

该预报发布于13小时和8分钟前的15:50 UTC
风速8节,风向
温度 8°C
湿度 76%
气压 996 hPa
能见度10公里或以上
少量云层高于2500英尺
散云层高于4000英尺

METAR: EGYH 131550Z 17008KT 9999 FEW025 SCT040 08/04 Q0996 RMK BLU

时间: 04:58 (04:58 UTC)


TAF: 丢失

超过4000个机场的气象观测和天气预报(METAR&TAF报告)。

可查询的气象台以黄色和红色小点在地图上表示。

将鼠标移到小点上方,可查看气象台名称。

然后点击查看天气观测和预报。

如需切换地图:点击带黑十字的绿色按钮放大地图;点击带横线的绿色按钮缩小地图;或者点击绿色箭头查看邻近地区的地图。


METAR-TAF: